createdAt,value
2022-11-27T00:00:01.629Z,8.40
2022-11-27T00:02:28.841Z,8.52
2022-11-27T00:04:55.937Z,9.38
2022-11-27T00:07:23.108Z,8.68
2022-11-27T00:09:50.132Z,8.93
2022-11-27T00:12:17.271Z,9.23
2022-11-27T00:14:44.326Z,9.15
2022-11-27T00:17:11.331Z,9.00
2022-11-27T00:19:38.592Z,8.30
2022-11-27T00:22:05.817Z,8.27
2022-11-27T00:24:32.829Z,9.35
2022-11-27T00:26:59.880Z,8.98
2022-11-27T00:29:29.340Z,8.43
2022-11-27T00:31:56.571Z,8.35
2022-11-27T00:34:23.762Z,8.15
2022-11-27T00:36:50.783Z,8.93
2022-11-27T00:39:17.871Z,8.50
2022-11-27T00:41:45.538Z,7.85
2022-11-27T00:44:13.841Z,7.93
2022-11-27T00:46:41.826Z,8.00
2022-11-27T00:49:11.035Z,7.72
2022-11-27T00:51:38.085Z,7.93
2022-11-27T00:54:06.142Z,7.68
2022-11-27T00:56:35.890Z,7.18
2022-11-27T00:59:04.342Z,7.85
2022-11-27T01:01:36.138Z,7.45
2022-11-27T01:04:05.217Z,7.40
2022-11-27T01:06:32.540Z,7.45
2022-11-27T01:08:59.987Z,6.97
2022-11-27T01:11:29.723Z,7.20
2022-11-27T01:13:59.717Z,6.50
2022-11-27T01:16:29.895Z,6.63
2022-11-27T01:18:58.950Z,7.35
2022-11-27T01:21:29.152Z,7.35
2022-11-27T01:23:56.806Z,7.28
2022-11-27T01:26:24.376Z,6.40
2022-11-27T01:28:56.064Z,6.82
2022-11-27T01:31:25.605Z,6.50
2022-11-27T01:33:55.598Z,6.63
2022-11-27T01:36:23.361Z,5.93
2022-11-27T01:38:51.114Z,7.20
2022-11-27T01:41:35.275Z,6.57
2022-11-27T01:44:23.857Z,6.53
2022-11-27T01:47:01.887Z,5.82
2022-11-27T01:49:34.404Z,5.97
2022-11-27T01:52:07.872Z,5.93
2022-11-27T01:54:43.314Z,6.20
2022-11-27T01:57:16.636Z,6.20
2022-11-27T01:59:44.257Z,6.72
2022-11-27T02:02:11.549Z,5.40
2022-11-27T02:04:38.868Z,6.18
2022-11-27T02:07:06.231Z,6.75
2022-11-27T02:09:33.590Z,5.47
2022-11-27T02:12:27.259Z,5.53
2022-11-27T02:15:11.315Z,5.80
2022-11-27T02:17:57.906Z,5.20
2022-11-27T02:20:48.441Z,5.53
2022-11-27T02:26:20.808Z,5.07
2022-11-27T02:29:04.621Z,4.85
2022-11-27T02:31:57.231Z,6.30
2022-11-27T02:34:38.526Z,5.10
2022-11-27T02:37:30.701Z,5.20
2022-11-27T02:40:11.674Z,5.70
2022-11-27T02:42:44.692Z,5.45
2022-11-27T02:45:17.170Z,5.05
2022-11-27T02:47:46.024Z,4.95
2022-11-27T02:50:19.456Z,4.90
2022-11-27T02:52:49.342Z,5.22
2022-11-27T02:55:20.694Z,4.93
2022-11-27T02:57:50.958Z,4.18
2022-11-27T03:00:18.379Z,5.10
2022-11-27T03:02:53.038Z,4.50
2022-11-27T03:05:22.810Z,4.43
2022-11-27T03:07:59.890Z,4.50
2022-11-27T03:10:46.205Z,4.40
2022-11-27T03:13:13.303Z,4.57
2022-11-27T03:16:05.001Z,4.68
2022-11-27T03:18:42.708Z,4.15
2022-11-27T03:21:39.545Z,4.05
2022-11-27T03:24:08.222Z,4.38
2022-11-27T03:26:35.729Z,4.47
2022-11-27T03:29:05.272Z,4.07
2022-11-27T03:31:32.717Z,3.77
2022-11-27T03:33:59.894Z,4.07
2022-11-27T03:36:26.925Z,4.32
2022-11-27T03:38:55.764Z,3.85
2022-11-27T03:41:49.911Z,4.13
2022-11-27T03:44:42.423Z,4.38
2022-11-27T03:47:36.802Z,3.13
2022-11-27T03:50:32.232Z,4.45
2022-11-27T03:53:27.270Z,3.85
2022-11-27T03:56:10.382Z,3.70
2022-11-27T03:58:47.215Z,4.32
2022-11-27T04:01:17.177Z,3.65
2022-11-27T04:03:44.214Z,3.55
2022-11-27T04:06:11.939Z,3.83
2022-11-27T04:08:40.275Z,4.22
2022-11-27T04:11:07.436Z,3.35
2022-11-27T04:13:34.644Z,3.92
2022-11-27T04:16:02.334Z,3.45
2022-11-27T04:18:29.777Z,3.33
2022-11-27T04:20:56.851Z,3.10
2022-11-27T04:23:24.019Z,3.90
2022-11-27T04:25:51.390Z,3.25
2022-11-27T04:28:18.420Z,3.08
2022-11-27T04:30:50.485Z,3.65
2022-11-27T04:33:17.534Z,3.58
2022-11-27T04:35:44.554Z,3.45
2022-11-27T04:38:11.636Z,2.92
2022-11-27T04:40:38.746Z,3.50
2022-11-27T04:43:05.789Z,3.38
2022-11-27T04:45:33.024Z,3.10
2022-11-27T04:48:00.057Z,3.20
2022-11-27T04:50:27.247Z,3.20
2022-11-27T04:52:54.237Z,3.05
2022-11-27T04:55:21.278Z,3.13
2022-11-27T04:57:48.390Z,3.03
2022-11-27T05:00:15.800Z,3.10
2022-11-27T05:02:42.900Z,2.75
2022-11-27T05:05:10.145Z,2.67
2022-11-27T05:07:37.429Z,2.70
2022-11-27T05:10:05.802Z,3.17
2022-11-27T05:12:33.377Z,2.50
2022-11-27T05:15:04.198Z,2.90
2022-11-27T05:17:31.926Z,2.88
2022-11-27T05:19:58.913Z,2.38
2022-11-27T05:22:25.881Z,2.47
2022-11-27T05:24:52.890Z,2.88
2022-11-27T05:27:19.916Z,2.78
2022-11-27T05:29:47.195Z,3.25
2022-11-27T05:32:14.179Z,2.50
2022-11-27T05:34:41.394Z,2.63
2022-11-27T05:37:08.681Z,2.50
2022-11-27T05:39:35.735Z,2.83
2022-11-27T05:42:02.752Z,2.80
2022-11-27T05:44:29.887Z,3.17
2022-11-27T05:46:57.457Z,2.38
2022-11-27T05:49:24.577Z,2.72
2022-11-27T05:51:52.039Z,2.40
2022-11-27T05:54:19.576Z,2.70
2022-11-27T05:56:47.020Z,2.67
2022-11-27T05:59:15.199Z,2.50
2022-11-27T06:01:42.644Z,2.50
2022-11-27T06:04:09.700Z,2.30
2022-11-27T06:06:36.715Z,2.53
2022-11-27T06:09:07.978Z,2.97
2022-11-27T06:11:38.657Z,2.35
2022-11-27T06:14:08.833Z,2.78
2022-11-27T06:16:36.101Z,2.67
2022-11-27T06:19:03.797Z,3.10
2022-11-27T06:21:30.760Z,2.83
2022-11-27T06:23:57.803Z,3.33
2022-11-27T06:26:27.320Z,2.88
2022-11-27T06:28:55.581Z,3.20
2022-11-27T06:31:25.916Z,2.95
2022-11-27T06:33:54.393Z,3.10
2022-11-27T06:36:22.663Z,2.90
2022-11-27T06:38:49.819Z,2.90
2022-11-27T06:41:19.848Z,3.20
2022-11-27T06:43:47.386Z,3.25
2022-11-27T06:46:17.092Z,2.95
2022-11-27T06:48:46.365Z,2.90
2022-11-27T06:51:15.931Z,3.42
2022-11-27T06:53:43.374Z,2.97
2022-11-27T06:56:12.632Z,3.67
2022-11-27T06:58:40.395Z,3.25
2022-11-27T07:01:10.886Z,3.42
2022-11-27T07:03:38.200Z,3.25
2022-11-27T07:06:07.506Z,3.47
2022-11-27T07:08:36.172Z,2.95
2022-11-27T07:11:07.249Z,3.65
2022-11-27T07:13:34.724Z,3.00
2022-11-27T07:16:03.383Z,3.17
2022-11-27T07:18:34.330Z,3.58
2022-11-27T07:21:01.576Z,2.80
2022-11-27T07:23:28.637Z,3.58
2022-11-27T07:25:55.686Z,3.30
2022-11-27T07:28:22.720Z,3.10
2022-11-27T07:30:57.278Z,3.22
2022-11-27T07:33:24.733Z,3.90
2022-11-27T07:36:05.915Z,3.28
2022-11-27T07:38:33.534Z,4.32
2022-11-27T07:41:02.052Z,3.58
2022-11-27T07:43:29.740Z,3.83
2022-11-27T07:45:56.993Z,4.30
2022-11-27T07:48:24.389Z,4.80
2022-11-27T07:50:51.652Z,6.18
2022-11-27T07:53:18.731Z,4.97
2022-11-27T07:55:45.875Z,4.60
2022-11-27T07:58:13.129Z,4.80
2022-11-27T08:00:40.277Z,4.70
2022-11-27T08:03:07.327Z,4.45
2022-11-27T08:05:35.777Z,4.95
2022-11-27T08:08:04.461Z,4.43
2022-11-27T08:10:34.850Z,5.00
2022-11-27T08:13:02.017Z,4.97
2022-11-27T08:15:29.144Z,4.55
2022-11-27T08:17:56.494Z,4.82
2022-11-27T08:20:23.742Z,5.07
2022-11-27T08:22:51.034Z,4.93
2022-11-27T08:25:18.084Z,5.30
2022-11-27T08:27:45.228Z,5.15
2022-11-27T08:30:12.593Z,4.43
2022-11-27T08:32:40.911Z,4.70
2022-11-27T08:35:08.621Z,5.03
2022-11-27T08:37:36.220Z,5.05
2022-11-27T08:40:04.491Z,4.20
2022-11-27T08:42:31.539Z,5.10
2022-11-27T08:44:58.560Z,4.55
2022-11-27T08:47:25.629Z,4.53
2022-11-27T08:49:53.017Z,3.97
2022-11-27T08:52:20.728Z,4.47
2022-11-27T08:54:49.264Z,4.38
2022-11-27T08:57:18.990Z,4.18
2022-11-27T08:59:46.010Z,4.80
2022-11-27T09:02:13.648Z,4.50
2022-11-27T09:04:40.850Z,4.30
2022-11-27T09:07:08.021Z,4.20
2022-11-27T09:09:36.585Z,3.85
2022-11-27T09:12:03.907Z,3.75
2022-11-27T09:14:30.954Z,4.57
2022-11-27T09:16:58.041Z,4.65
2022-11-27T09:19:26.138Z,4.78
2022-11-27T09:21:53.176Z,4.68
2022-11-27T09:24:20.225Z,4.38
2022-11-27T09:26:47.268Z,4.00
2022-11-27T09:29:14.406Z,3.83
2022-11-27T09:31:41.510Z,3.67
2022-11-27T09:34:08.588Z,3.70
2022-11-27T09:36:36.903Z,3.63
2022-11-27T09:39:04.103Z,3.65
2022-11-27T09:41:50.645Z,3.58
2022-11-27T09:44:49.476Z,3.80
2022-11-27T09:47:41.613Z,4.00
2022-11-27T09:50:17.113Z,3.33
2022-11-27T09:53:19.155Z,3.65
2022-11-27T09:55:50.061Z,3.72
2022-11-27T09:58:22.607Z,3.50
2022-11-27T10:00:49.936Z,4.10
2022-11-27T10:03:21.956Z,3.13
2022-11-27T10:06:14.440Z,3.05
2022-11-27T10:09:03.917Z,3.28
2022-11-27T10:12:04.425Z,3.50
2022-11-27T10:14:59.881Z,3.22
2022-11-27T10:17:58.229Z,3.38
2022-11-27T10:20:36.594Z,3.53
2022-11-27T10:23:15.015Z,2.90
2022-11-27T10:25:48.265Z,3.25
2022-11-27T10:28:48.230Z,2.80
2022-11-27T10:31:21.203Z,3.00
2022-11-27T10:33:54.950Z,3.50
2022-11-27T10:36:31.116Z,3.00
2022-11-27T10:39:00.212Z,3.13
2022-11-27T10:41:52.647Z,3.00
2022-11-27T10:44:31.619Z,2.80
2022-11-27T10:47:03.378Z,3.28
2022-11-27T10:49:31.518Z,3.25
2022-11-27T10:51:59.394Z,3.10
2022-11-27T10:54:39.469Z,3.35
2022-11-27T11:00:25.385Z,2.67
2022-11-27T11:03:04.881Z,3.33
2022-11-27T11:05:50.465Z,2.77
2022-11-27T11:08:21.173Z,2.65
2022-11-27T11:11:06.478Z,2.90
2022-11-27T11:13:46.648Z,3.03
2022-11-27T11:16:23.960Z,2.40
2022-11-27T11:18:56.215Z,3.10
2022-11-27T11:21:33.192Z,2.78
2022-11-27T11:24:03.983Z,2.47
2022-11-27T11:26:39.221Z,2.85
2022-11-27T11:29:21.044Z,2.40
2022-11-27T11:31:48.189Z,2.28
2022-11-27T11:34:23.869Z,2.28
2022-11-27T11:37:07.690Z,2.53
2022-11-27T11:39:44.016Z,2.85
2022-11-27T11:42:19.310Z,2.75
2022-11-27T11:44:52.185Z,2.75
2022-11-27T11:47:25.435Z,2.28
2022-11-27T11:49:53.958Z,2.40
2022-11-27T11:52:47.168Z,2.97
2022-11-27T11:55:38.033Z,2.78
2022-11-27T11:58:37.237Z,2.10
2022-11-27T12:01:39.706Z,2.25
2022-11-27T12:04:31.333Z,2.45
2022-11-27T12:07:25.569Z,2.60
2022-11-27T12:10:30.203Z,2.47
2022-11-27T12:13:30.385Z,2.55
2022-11-27T12:16:26.188Z,2.35
2022-11-27T12:19:32.986Z,2.60
2022-11-27T12:22:26.381Z,2.92
2022-11-27T12:25:19.438Z,2.13
2022-11-27T12:28:22.283Z,2.55
2022-11-27T12:31:22.202Z,2.72
2022-11-27T12:34:29.119Z,2.30
2022-11-27T12:37:34.381Z,2.65
2022-11-27T12:40:23.593Z,2.33
2022-11-27T12:43:06.118Z,2.30
2022-11-27T12:46:02.635Z,2.45
2022-11-27T12:48:59.053Z,2.53
2022-11-27T12:51:39.449Z,2.95
2022-11-27T12:54:14.410Z,3.15
2022-11-27T12:56:46.203Z,2.55
2022-11-27T12:59:33.334Z,2.67
2022-11-27T13:02:40.189Z,2.90
2022-11-27T13:05:16.722Z,2.47
2022-11-27T13:08:06.402Z,2.85
2022-11-27T13:10:40.606Z,3.13
2022-11-27T13:13:16.634Z,2.63
2022-11-27T13:15:52.532Z,3.22
2022-11-27T13:18:35.311Z,2.95
2022-11-27T13:21:09.691Z,2.33
2022-11-27T13:23:36.743Z,3.65
2022-11-27T13:26:15.358Z,3.30
2022-11-27T13:28:47.006Z,2.80
2022-11-27T13:31:25.588Z,3.28
2022-11-27T13:34:00.245Z,2.92
2022-11-27T13:36:39.907Z,3.53
2022-11-27T13:39:19.069Z,3.33
2022-11-27T13:41:48.301Z,3.80
2022-11-27T13:44:27.666Z,3.40
2022-11-27T13:47:06.873Z,3.87
2022-11-27T13:49:38.009Z,3.53
2022-11-27T13:52:16.078Z,3.05
2022-11-27T13:54:55.884Z,3.17
2022-11-27T13:57:24.419Z,3.40
2022-11-27T14:00:10.131Z,3.63
2022-11-27T14:02:43.781Z,3.30
2022-11-27T14:05:13.186Z,3.67
2022-11-27T14:07:43.479Z,3.97
2022-11-27T14:12:42.986Z,3.75
2022-11-27T14:15:24.490Z,3.70
2022-11-27T14:17:54.540Z,3.75
2022-11-27T14:20:26.889Z,3.40
2022-11-27T14:23:13.163Z,3.88
2022-11-27T14:25:41.448Z,3.85
2022-11-27T14:28:26.464Z,4.18
2022-11-27T14:30:59.523Z,4.40
2022-11-27T14:33:33.185Z,4.93
2022-11-27T14:36:07.742Z,4.35
2022-11-27T14:38:35.768Z,3.70
2022-11-27T14:41:11.771Z,4.03
2022-11-27T14:43:38.812Z,4.00
2022-11-27T14:46:09.789Z,4.60
2022-11-27T14:48:55.415Z,4.00
2022-11-27T14:51:25.483Z,4.03
2022-11-27T14:54:00.819Z,4.75
2022-11-27T14:56:34.124Z,4.15
2022-11-27T14:59:02.176Z,4.35
2022-11-27T15:01:32.002Z,4.55
2022-11-27T15:04:23.983Z,4.63
2022-11-27T15:06:51.500Z,4.90
2022-11-27T15:09:31.900Z,3.75
2022-11-27T15:12:14.398Z,4.55
2022-11-27T15:14:51.309Z,3.70
2022-11-27T15:17:26.300Z,3.38
2022-11-27T15:19:54.958Z,4.25
2022-11-27T15:22:22.856Z,3.97
2022-11-27T15:25:05.557Z,4.32
2022-11-27T15:27:44.153Z,4.40
2022-11-27T15:30:18.284Z,3.97
2022-11-27T15:32:51.683Z,3.58
2022-11-27T15:35:26.381Z,4.05
2022-11-27T15:37:56.725Z,4.05
2022-11-27T15:43:14.774Z,4.03
2022-11-27T15:45:44.532Z,4.30
2022-11-27T15:48:16.790Z,4.00
2022-11-27T15:50:48.350Z,4.40
2022-11-27T15:53:18.305Z,3.85
2022-11-27T15:55:45.494Z,3.42
2022-11-27T15:58:12.590Z,3.78
2022-11-27T16:00:40.701Z,3.55
2022-11-27T16:03:07.868Z,3.80
2022-11-27T16:05:34.975Z,3.63
2022-11-27T16:08:02.173Z,3.47
2022-11-27T16:10:29.275Z,3.80
2022-11-27T16:12:57.783Z,3.85
2022-11-27T16:15:27.618Z,3.90
2022-11-27T16:17:58.653Z,3.60
2022-11-27T16:20:26.545Z,3.42
2022-11-27T16:22:53.873Z,3.28
2022-11-27T16:25:21.094Z,3.92
2022-11-27T16:27:48.094Z,3.45
2022-11-27T16:30:15.320Z,3.90
2022-11-27T16:32:42.320Z,4.10
2022-11-27T16:35:09.616Z,3.35
2022-11-27T16:37:36.815Z,3.08
2022-11-27T16:40:04.355Z,3.45
2022-11-27T16:42:31.416Z,3.40
2022-11-27T16:44:58.395Z,3.30
2022-11-27T16:47:30.560Z,3.33
2022-11-27T16:50:00.560Z,3.40
2022-11-27T16:52:27.579Z,3.80
2022-11-27T16:54:55.602Z,3.33
2022-11-27T16:57:22.663Z,3.08
2022-11-27T16:59:51.005Z,3.50
2022-11-27T17:02:18.154Z,3.60
2022-11-27T17:04:45.361Z,3.15
2022-11-27T17:07:12.500Z,3.42
2022-11-27T17:09:42.230Z,3.50
2022-11-27T17:12:09.279Z,3.30
2022-11-27T17:14:37.130Z,3.38
2022-11-27T17:17:06.351Z,3.13
2022-11-27T17:19:34.308Z,3.10
2022-11-27T17:22:01.567Z,3.70
2022-11-27T17:24:29.090Z,3.95
2022-11-27T17:26:56.247Z,3.20
2022-11-27T17:29:23.348Z,3.30
2022-11-27T17:31:51.053Z,3.03
2022-11-27T17:34:18.528Z,3.35
2022-11-27T17:36:46.042Z,2.85
2022-11-27T17:39:14.759Z,3.28
2022-11-27T17:41:44.893Z,3.28
2022-11-27T17:44:12.844Z,2.92
2022-11-27T17:46:40.192Z,2.97
2022-11-27T17:49:08.382Z,3.00
2022-11-27T17:51:36.393Z,3.08
2022-11-27T17:54:04.375Z,3.63
2022-11-27T17:56:31.588Z,2.97
2022-11-27T17:59:00.006Z,3.05
2022-11-27T18:01:29.383Z,3.00
2022-11-27T18:04:00.583Z,3.03
2022-11-27T18:06:27.846Z,3.30
2022-11-27T18:08:56.694Z,2.83
2022-11-27T18:11:25.759Z,3.45
2022-11-27T18:13:52.807Z,3.58
2022-11-27T18:16:29.169Z,3.08
2022-11-27T18:18:57.779Z,3.22
2022-11-27T18:21:27.331Z,2.65
2022-11-27T18:24:21.814Z,3.37
2022-11-27T18:27:07.054Z,3.75
2022-11-27T18:29:29.441Z,2.90
2022-11-27T18:31:56.618Z,2.80
2022-11-27T18:34:23.620Z,2.97
2022-11-27T18:36:50.637Z,3.13
2022-11-27T18:39:17.712Z,2.92
2022-11-27T18:41:44.727Z,3.50
2022-11-27T18:44:11.739Z,2.92
2022-11-27T18:46:38.906Z,2.80
2022-11-27T18:49:06.190Z,3.10
2022-11-27T18:51:33.358Z,2.95
2022-11-27T18:54:00.434Z,3.25
2022-11-27T18:56:30.704Z,3.00
2022-11-27T18:59:02.016Z,3.53
2022-11-27T19:01:35.434Z,3.60
2022-11-27T19:04:06.587Z,2.92
2022-11-27T19:06:35.679Z,3.70
2022-11-27T19:09:02.760Z,3.20
2022-11-27T19:11:31.073Z,2.97
2022-11-27T19:13:58.679Z,3.25
2022-11-27T19:16:29.546Z,2.70
2022-11-27T19:18:57.959Z,3.55
2022-11-27T19:21:27.206Z,3.50
2022-11-27T19:23:55.289Z,3.47
2022-11-27T19:26:24.682Z,2.95
2022-11-27T19:28:53.303Z,3.03
2022-11-27T19:31:21.414Z,3.42
2022-11-27T19:33:56.485Z,3.08
2022-11-27T19:36:23.551Z,2.70
2022-11-27T19:38:57.383Z,3.10
2022-11-27T19:41:25.159Z,3.50
2022-11-27T19:43:52.285Z,2.72
2022-11-27T19:46:23.705Z,3.55
2022-11-27T19:48:54.376Z,2.67
2022-11-27T19:51:21.421Z,3.35
2022-11-27T19:53:48.576Z,3.13
2022-11-27T19:56:15.576Z,3.50
2022-11-27T19:58:42.884Z,2.92
2022-11-27T20:01:12.784Z,3.38
2022-11-27T20:03:40.405Z,3.10
2022-11-27T20:06:11.341Z,3.17
2022-11-27T20:08:39.418Z,3.10
2022-11-27T20:11:13.346Z,3.38
2022-11-27T20:13:40.648Z,2.97
2022-11-27T20:16:08.880Z,2.95
2022-11-27T20:18:36.618Z,2.75
2022-11-27T20:21:08.990Z,3.28
2022-11-27T20:23:36.196Z,3.22
2022-11-27T20:26:08.788Z,3.05
2022-11-27T20:28:36.686Z,3.25
2022-11-27T20:31:04.344Z,3.30
2022-11-27T20:33:32.118Z,3.90
2022-11-27T20:35:59.248Z,2.65
2022-11-27T20:38:29.608Z,2.95
2022-11-27T20:40:56.638Z,2.90
2022-11-27T20:43:23.631Z,2.90
2022-11-27T20:45:53.197Z,3.00
2022-11-27T20:48:20.293Z,2.88
2022-11-27T20:50:51.381Z,2.83
2022-11-27T20:53:19.680Z,3.30
2022-11-27T20:55:47.387Z,2.92
2022-11-27T20:58:14.424Z,2.70
2022-11-27T21:00:41.510Z,3.00
2022-11-27T21:03:08.624Z,2.90
2022-11-27T21:05:35.616Z,3.15
2022-11-27T21:08:02.609Z,3.17
2022-11-27T21:10:29.748Z,2.75
2022-11-27T21:12:56.840Z,2.97
2022-11-27T21:15:23.868Z,3.50
2022-11-27T21:17:50.950Z,3.17
2022-11-27T21:20:18.679Z,2.58
2022-11-27T21:22:45.739Z,2.72
2022-11-27T21:25:12.899Z,3.08
2022-11-27T21:27:39.918Z,2.70
2022-11-27T21:30:07.581Z,2.83
2022-11-27T21:32:34.756Z,3.13
2022-11-27T21:35:01.892Z,2.72
2022-11-27T21:37:28.882Z,3.53
2022-11-27T21:39:56.661Z,3.28
2022-11-27T21:42:24.295Z,3.20
2022-11-27T21:44:51.321Z,3.00
2022-11-27T21:47:18.353Z,2.90
2022-11-27T21:49:45.407Z,3.15
2022-11-27T21:52:12.361Z,3.08
2022-11-27T21:54:39.565Z,2.97
2022-11-27T21:57:06.690Z,3.55
2022-11-27T21:59:33.691Z,3.00
2022-11-27T22:02:00.856Z,3.25
2022-11-27T22:04:28.012Z,2.92
2022-11-27T22:06:55.091Z,2.78
2022-11-27T22:09:22.100Z,3.10
2022-11-27T22:11:53.145Z,3.58
2022-11-27T22:14:20.158Z,2.83
2022-11-27T22:16:47.454Z,3.55
2022-11-27T22:19:15.095Z,2.88
2022-11-27T22:21:42.353Z,3.05
2022-11-27T22:24:15.052Z,3.20
2022-11-27T22:26:45.893Z,2.90
2022-11-27T22:29:12.927Z,3.00
2022-11-27T22:31:39.934Z,3.10
2022-11-27T22:34:06.985Z,3.00
2022-11-27T22:36:35.254Z,2.92
2022-11-27T22:39:05.980Z,3.10
2022-11-27T22:41:36.516Z,3.10
2022-11-27T22:44:15.708Z,3.10
2022-11-27T22:46:43.191Z,3.10
2022-11-27T22:49:12.769Z,3.47
2022-11-27T22:51:40.509Z,2.83
2022-11-27T22:54:10.841Z,2.83
2022-11-27T22:56:37.901Z,2.85
2022-11-27T23:01:53.734Z,3.30
2022-11-27T23:04:20.779Z,3.03
2022-11-27T23:06:48.635Z,3.30
2022-11-27T23:09:18.154Z,3.38
2022-11-27T23:11:45.782Z,3.08
2022-11-27T23:14:12.844Z,2.60
2022-11-27T23:16:40.221Z,3.05
2022-11-27T23:19:07.309Z,3.05
2022-11-27T23:21:37.618Z,3.38
2022-11-27T23:26:32.756Z,3.53
2022-11-27T23:28:59.971Z,3.08
2022-11-27T23:31:30.691Z,2.95
2022-11-27T23:34:01.332Z,3.08
2022-11-27T23:36:28.729Z,3.13
2022-11-27T23:38:55.741Z,3.03
2022-11-27T23:41:24.894Z,2.95
2022-11-27T23:43:53.492Z,2.90
2022-11-27T23:46:25.434Z,3.13
2022-11-27T23:48:54.683Z,2.90
2022-11-27T23:51:25.031Z,3.40
2022-11-27T23:53:52.866Z,2.97
2022-11-27T23:56:23.227Z,3.03
2022-11-27T23:58:50.441Z,3.00
